Terminal Aerodrome Forecast
Issued by NWS Jackson, MS

Home | Current Version | Previous Version | Text Only | Print | Product List | Glossary On
Versions: 1 2 3 4 5 6 7 8 9 10 11 12 13 14 15 16
000
FTUS44 KJAN 012320
TAFHBG
TAF
KHBG 012320Z 0200/0224 01003KT P6SM SCT050
     FM020900 00000KT 2SM BR BKN003
     FM021400 34005KT P6SM SCT010=

USA.gov is the U.S. government's official web portal to all federal, state and local government web resources and services.